Time;durP1;ratioP1;P1;durP2;ratioP2;P2;SDS_P1;SDS_P2;PMS_P1;PMS_P2;Temp;Humidity;BMP_temperature;BMP_pressure;BME280_temperature;BME280_humidity;BME280_pressure;Samples;Min_cycle;Max_cycle;Signal;HPM_P1;HPM_P2
2022/06/24 00:01:41;;;;;;;4.18;3.25;;;20.20;57.20;;;;;;5140992;27;20121;-64
2022/06/24 00:04:08;;;;;;;4.32;3.05;;;20.10;57.20;;;;;;5147995;27;20580;-63
2022/06/24 00:06:47;;;;;;;3.88;3.00;;;20.10;57.30;;;;;;5141106;27;20031;-64
2022/06/24 00:09:14;;;;;;;3.80;3.38;;;20.10;58.50;;;;;;5142163;27;20043;-63
2022/06/24 00:11:40;;;;;;;3.13;2.80;;;20.00;57.90;;;;;;5146978;27;20104;-63
2022/06/24 00:14:09;;;;;;;4.18;2.60;;;19.90;58.00;;;;;;5142928;27;21112;-62
2022/06/24 00:17:02;;;;;;;5.95;3.10;;;19.90;58.70;;;;;;5149439;27;20137;-63
2022/06/24 00:19:30;;;;;;;3.72;3.22;;;19.80;59.60;;;;;;5149416;27;20034;-63
2022/06/24 00:21:57;;;;;;;5.32;3.33;;;19.80;59.70;;;;;;5149815;27;20037;-63
2022/06/24 00:24:23;;;;;;;5.32;3.17;;;19.70;60.00;;;;;;5145566;27;20043;-64
2022/06/24 00:26:49;;;;;;;4.85;3.30;;;19.70;60.30;;;;;;5150681;27;20039;-62
2022/06/24 00:29:16;;;;;;;3.63;2.90;;;19.50;60.60;;;;;;5148990;27;20039;-63
2022/06/24 00:31:58;;;;;;;4.22;3.28;;;19.50;60.90;;;;;;5127735;27;20034;-63
2022/06/24 00:34:23;;;;;;;3.63;3.30;;;19.40;61.10;;;;;;5147095;27;20053;-62
2022/06/24 00:36:52;;;;;;;3.88;3.20;;;19.30;62.00;;;;;;5148796;27;20027;-63
2022/06/24 00:39:18;;;;;;;3.63;3.25;;;19.20;61.10;;;;;;5150068;27;20034;-63
2022/06/24 00:41:48;;;;;;;4.68;3.20;;;19.20;61.10;;;;;;5145966;27;20513;-63
2022/06/24 00:44:15;;;;;;;4.90;3.60;;;19.10;61.20;;;;;;5130205;27;20053;-63
2022/06/24 00:46:43;;;;;;;4.38;3.42;;;19.00;61.30;;;;;;5149335;27;20043;-62
2022/06/24 00:49:11;;;;;;;6.18;3.40;;;18.90;61.50;;;;;;5148254;27;20466;-63
2022/06/24 00:51:37;;;;;;;3.17;2.90;;;18.90;61.70;;;;;;5151754;27;20035;-63
2022/06/24 00:54:12;;;;;;;9.80;3.35;;;18.80;61.90;;;;;;5151816;27;20055;-63
2022/06/24 00:56:38;;;;;;;4.78;3.58;;;18.80;62.40;;;;;;5139933;27;20056;-62
2022/06/24 00:59:07;;;;;;;3.75;3.30;;;18.70;62.80;;;;;;5130540;27;20494;-63
2022/06/24 01:01:33;;;;;;;5.22;3.35;;;18.70;63.10;;;;;;5144575;27;20032;-62
2022/06/24 01:04:00;;;;;;;4.07;3.53;;;18.60;63.40;;;;;;5146644;27;20418;-62
2022/06/24 01:06:28;;;;;;;3.40;3.10;;;18.60;64.10;;;;;;5149363;27;20045;-64
2022/06/24 01:08:54;;;;;;;4.60;3.67;;;18.60;64.60;;;;;;5147814;27;20034;-63
2022/06/24 01:11:33;;;;;;;4.65;3.90;;;18.60;65.10;;;;;;5140806;27;20031;-62
2022/06/24 01:14:00;;;;;;;3.72;3.42;;;18.50;65.90;;;;;;5149865;27;20046;-63
2022/06/24 01:16:26;;;;;;;3.92;3.58;;;18.40;65.90;;;;;;5148611;27;20122;-62
2022/06/24 01:18:52;;;;;;;4.57;3.80;;;18.40;66.30;;;;;;5149342;27;20038;-62
2022/06/24 01:21:44;;;;;;;3.53;3.22;;;18.40;66.60;;;;;;5149332;27;20046;-63
2022/06/24 01:24:12;;;;;;;4.15;3.45;;;18.30;67.70;;;;;;5146693;27;20038;-62
2022/06/24 01:26:40;;;;;;;4.38;3.97;;;18.30;67.30;;;;;;5147684;27;20034;-62
2022/06/24 01:29:05;;;;;;;3.60;3.30;;;18.30;67.50;;;;;;5129124;27;20042;-63
2022/06/24 01:31:31;;;;;;;3.90;3.58;;;18.20;67.90;;;;;;5146518;27;20466;-62
2022/06/24 01:33:57;;;;;;;4.65;3.50;;;18.20;68.20;;;;;;5144869;27;20030;-63
2022/06/24 01:36:23;;;;;;;3.65;3.35;;;18.20;68.40;;;;;;5149742;27;20045;-63
2022/06/24 01:38:49;;;;;;;5.40;3.42;;;18.20;68.60;;;;;;5117849;27;20041;-63
2022/06/24 01:41:15;;;;;;;5.22;3.35;;;18.10;68.80;;;;;;5144973;27;20062;-63
2022/06/24 01:43:41;;;;;;;4.32;3.70;;;18.00;69.20;;;;;;5147543;27;20038;-62
2022/06/24 01:46:06;;;;;;;3.75;3.35;;;18.00;69.60;;;;;;5145790;27;20394;-62
2022/06/24 01:48:32;;;;;;;4.75;4.25;;;17.90;70.00;;;;;;5143246;27;20034;-63
2022/06/24 01:50:58;;;;;;;5.43;4.00;;;17.80;70.50;;;;;;5146347;27;20042;-62
2022/06/24 01:53:24;;;;;;;4.78;3.55;;;17.80;70.60;;;;;;5147930;27;20085;-62
2022/06/24 01:55:49;;;;;;;5.35;3.70;;;17.70;70.50;;;;;;5151183;27;20431;-63
2022/06/24 01:58:15;;;;;;;4.28;3.88;;;17.70;70.70;;;;;;5145709;27;20052;-63
2022/06/24 02:00:40;;;;;;;4.28;3.88;;;17.60;71.10;;;;;;5121906;27;20385;-62
2022/06/24 02:03:06;;;;;;;9.23;4.57;;;17.60;71.50;;;;;;5144007;27;20042;-63
2022/06/24 02:05:32;;;;;;;4.57;3.63;;;17.60;71.60;;;;;;5141471;27;20054;-63
2022/06/24 02:07:58;;;;;;;5.30;3.90;;;17.60;71.70;;;;;;5150336;27;20023;-62
2022/06/24 02:13:28;;;;;;;6.32;3.80;;;17.50;72.20;;;;;;5146660;27;20046;-62
2022/06/24 02:15:58;;;;;;;7.18;4.10;;;17.50;72.20;;;;;;5146331;27;20030;-62
2022/06/24 02:18:24;;;;;;;;;;;17.40;72.40;;;;;;5132771;27;20046;-62
2022/06/24 02:20:50;;;;;;;5.68;3.97;;;17.40;73.60;;;;;;5148149;27;20425;-63
2022/06/24 02:23:18;;;;;;;7.35;4.45;;;17.40;72.60;;;;;;5141110;27;20066;-62
2022/06/24 02:25:48;;;;;;;5.28;4.25;;;17.40;73.00;;;;;;5147827;27;20039;-62
2022/06/24 02:28:14;;;;;;;6.28;4.13;;;17.40;73.30;;;;;;5150733;27;20405;-62
2022/06/24 02:30:40;;;;;;;5.25;4.55;;;17.40;73.40;;;;;;5146960;27;20132;-62
2022/06/24 02:33:07;;;;;;;4.43;3.92;;;17.30;73.50;;;;;;5140326;27;20039;-62
2022/06/24 02:35:33;;;;;;;7.70;3.83;;;17.30;73.50;;;;;;5148720;27;20034;-63
2022/06/24 02:37:59;;;;;;;4.65;4.18;;;17.20;73.60;;;;;;5153806;27;20042;-62
2022/06/24 02:43:16;;;;;;;5.80;4.10;;;17.10;73.50;;;;;;5139402;27;20038;-62
2022/06/24 02:45:47;;;;;;;7.00;4.47;;;17.10;73.70;;;;;;5152063;27;20087;-62
2022/06/24 02:48:14;;;;;;;6.75;4.43;;;17.10;73.60;;;;;;5154164;27;20348;-62
2022/06/24 02:50:42;;;;;;;5.13;4.40;;;17.10;73.40;;;;;;5154654;27;20066;-63
2022/06/24 02:53:08;;;;;;;7.10;4.93;;;17.20;73.60;;;;;;5146266;27;20062;-63
2022/06/24 02:55:34;;;;;;;5.90;4.47;;;17.20;73.20;;;;;;5150599;27;20953;-63
2022/06/24 02:58:00;;;;;;;5.78;4.47;;;17.20;73.20;;;;;;5148988;27;20034;-62
2022/06/24 03:00:26;;;;;;;5.10;4.60;;;17.20;73.30;;;;;;5149576;27;20045;-62
2022/06/24 03:02:51;;;;;;;6.70;4.90;;;17.30;73.40;;;;;;5150987;27;20030;-63
2022/06/24 03:05:17;;;;;;;5.75;4.60;;;17.40;73.90;;;;;;5147652;27;20083;-63
2022/06/24 03:07:43;;;;;;;5.30;4.80;;;17.40;73.90;;;;;;5135282;27;20035;-63
2022/06/24 03:10:09;;;;;;;5.97;4.40;;;17.40;74.10;;;;;;5143013;27;20486;-62
2022/06/24 03:12:35;;;;;;;5.90;4.50;;;17.40;73.90;;;;;;5147309;27;20419;-62
2022/06/24 03:15:00;;;;;;;4.55;4.13;;;17.40;73.70;;;;;;5151983;27;20038;-62
2022/06/24 03:17:26;;;;;;;5.35;4.05;;;17.50;73.80;;;;;;5154719;27;20031;-62
2022/06/24 03:19:51;;;;;;;6.68;4.20;;;17.50;73.90;;;;;;5149572;27;20566;-63
2022/06/24 03:22:17;;;;;;;7.03;5.35;;;17.60;74.30;;;;;;5151852;27;20483;-62
2022/06/24 03:24:42;;;;;;;6.88;5.50;;;17.60;75.30;;;;;;5150487;27;20089;-62
2022/06/24 03:27:08;;;;;;;5.88;5.28;;;17.60;75.70;;;;;;5151880;27;20066;-62
2022/06/24 03:29:34;;;;;;;5.15;4.63;;;17.60;76.00;;;;;;5152115;27;20083;-62
2022/06/24 03:32:00;;;;;;;6.57;5.22;;;17.60;76.00;;;;;;5149094;27;20035;-63
2022/06/24 03:34:26;;;;;;;6.35;4.90;;;17.60;75.50;;;;;;5150834;27;20038;-62
2022/06/24 03:36:51;;;;;;;6.53;4.82;;;17.60;75.40;;;;;;5155517;27;20450;-62
2022/06/24 03:39:17;;;;;;;4.80;4.22;;;17.60;75.10;;;;;;5149790;27;20038;-62
2022/06/24 03:41:42;;;;;;;5.55;4.63;;;17.60;75.10;;;;;;5150262;27;20095;-62
2022/06/24 03:44:08;;;;;;;4.97;4.50;;;17.60;74.80;;;;;;5148493;27;20197;-62
2022/06/24 03:46:34;;;;;;;4.60;4.13;;;17.50;74.40;;;;;;5135134;27;20469;-63
2022/06/24 03:48:59;;;;;;;4.68;4.28;;;17.60;74.60;;;;;;5150495;27;20030;-62
2022/06/24 03:51:25;;;;;;;4.93;4.43;;;17.60;74.50;;;;;;5151769;27;20042;-62
2022/06/24 03:53:50;;;;;;;6.78;4.78;;;17.60;74.20;;;;;;5146696;27;20127;-63
2022/06/24 03:56:16;;;;;;;7.05;4.68;;;17.70;74.10;;;;;;5114036;27;20039;-62
2022/06/24 03:58:41;;;;;;;5.85;5.10;;;17.70;74.50;;;;;;5152376;27;20038;-63
2022/06/24 04:01:08;;;;;;;6.80;4.80;;;17.80;74.20;;;;;;5147373;27;20057;-63
2022/06/24 04:03:34;;;;;;;9.45;5.05;;;17.80;74.30;;;;;;5138730;27;20034;-62
2022/06/24 04:05:59;;;;;;;5.43;4.70;;;17.80;74.40;;;;;;5148938;27;20070;-63
2022/06/24 04:08:25;;;;;;;6.40;4.97;;;17.80;74.30;;;;;;5151731;27;20039;-63
2022/06/24 04:10:51;;;;;;;5.55;4.70;;;17.90;74.60;;;;;;5149966;27;20046;-63
2022/06/24 04:13:16;;;;;;;6.88;4.55;;;17.90;75.60;;;;;;5143917;27;20042;-63
2022/06/24 04:15:49;;;;;;;5.28;4.45;;;18.00;74.90;;;;;;5150641;27;20031;-62
2022/06/24 04:18:16;;;;;;;6.70;4.53;;;18.10;74.50;;;;;;5148066;27;20049;-62
2022/06/24 04:20:42;;;;;;;6.80;5.10;;;18.20;73.70;;;;;;5144876;27;20130;-62
2022/06/24 04:23:08;;;;;;;5.00;4.47;;;18.20;73.60;;;;;;5153751;27;20124;-63
2022/06/24 04:25:34;;;;;;;7.00;5.00;;;18.30;73.00;;;;;;5148735;27;20078;-62
2022/06/24 04:28:00;;;;;;;5.47;4.20;;;18.30;72.50;;;;;;5147659;27;20518;-62
2022/06/24 04:30:26;;;;;;;6.65;4.40;;;18.50;72.10;;;;;;5146570;27;20041;-62
2022/06/24 04:32:52;;;;;;;7.05;4.70;;;18.50;72.00;;;;;;5148025;27;20031;-63
2022/06/24 04:35:17;;;;;;;9.00;4.68;;;18.60;71.70;;;;;;5127223;27;20031;-63
2022/06/24 04:37:43;;;;;;;7.38;4.65;;;18.70;70.80;;;;;;5149020;27;20030;-62
2022/06/24 04:40:11;;;;;;;6.97;4.30;;;18.80;70.20;;;;;;5151295;27;20062;-63
2022/06/24 04:42:37;;;;;;;6.60;4.97;;;18.90;70.00;;;;;;5151592;27;20049;-62
2022/06/24 04:45:04;;;;;;;5.57;4.15;;;19.10;69.90;;;;;;5146034;27;20034;-63
2022/06/24 04:47:30;;;;;;;4.97;4.20;;;19.20;69.30;;;;;;5151434;27;20073;-62
2022/06/24 04:49:55;;;;;;;5.47;4.00;;;19.30;68.50;;;;;;5149377;27;20058;-63
2022/06/24 04:52:21;;;;;;;6.38;4.55;;;19.40;67.90;;;;;;5147654;27;20050;-63
2022/06/24 04:54:48;;;;;;;4.65;4.15;;;19.40;67.70;;;;;;5150872;27;20394;-63
2022/06/24 04:57:13;;;;;;;6.13;4.38;;;19.50;67.50;;;;;;5149924;27;22904;-63
2022/06/24 04:59:39;;;;;;;5.03;4.15;;;19.50;67.70;;;;;;5147357;27;20075;-63
2022/06/24 05:02:05;;;;;;;4.75;4.03;;;19.50;67.70;;;;;;5142742;27;20039;-63
2022/06/24 05:04:31;;;;;;;7.13;4.07;;;19.60;68.10;;;;;;5143725;27;20039;-62
2022/06/24 05:06:56;;;;;;;4.85;4.05;;;19.60;69.00;;;;;;5148305;27;20039;-63
2022/06/24 05:09:22;;;;;;;9.77;4.68;;;19.60;68.30;;;;;;5144481;27;20313;-62
2022/06/24 05:11:50;;;;;;;6.28;4.32;;;19.60;68.40;;;;;;5144252;27;20064;-63
2022/06/24 05:14:16;;;;;;;6.80;4.88;;;19.80;68.10;;;;;;5147291;27;20145;-63
2022/06/24 05:16:42;;;;;;;6.32;4.40;;;20.00;68.00;;;;;;5147515;27;20057;-63
2022/06/24 05:19:09;;;;;;;8.50;5.22;;;20.10;68.00;;;;;;5149132;27;20501;-62
2022/06/24 05:21:35;;;;;;;7.07;6.03;;;20.20;68.60;;;;;;5144915;27;20047;-62
2022/06/24 05:24:01;;;;;;;9.10;6.38;;;20.40;69.30;;;;;;5147686;27;20042;-63
2022/06/24 05:26:26;;;;;;;10.60;7.20;;;20.70;70.60;;;;;;5143311;27;20114;-63
2022/06/24 05:28:52;;;;;;;8.60;6.63;;;20.80;72.00;;;;;;5143623;27;20043;-64
2022/06/24 05:31:17;;;;;;;9.32;8.00;;;21.00;71.50;;;;;;5142709;27;20588;-64
2022/06/24 05:33:43;;;;;;;9.88;7.80;;;21.00;73.30;;;;;;5143872;27;20446;-63
2022/06/24 05:36:09;;;;;;;10.43;7.53;;;21.00;74.20;;;;;;5148331;27;20038;-62
2022/06/24 05:38:35;;;;;;;8.88;7.75;;;21.00;74.50;;;;;;5148782;27;20034;-62
2022/06/24 05:41:02;;;;;;;10.95;8.55;;;21.00;75.80;;;;;;5131416;27;20135;-62
2022/06/24 05:43:28;;;;;;;13.05;8.50;;;20.90;77.10;;;;;;5152233;27;20076;-63
2022/06/24 05:45:53;;;;;;;11.73;8.75;;;20.90;78.00;;;;;;5129854;27;20534;-62
2022/06/24 05:48:19;;;;;;;11.73;10.02;;;20.80;79.50;;;;;;5147166;27;20106;-63
2022/06/24 05:50:45;;;;;;;13.98;10.43;;;20.70;81.10;;;;;;5149559;27;20038;-62
2022/06/24 05:55:59;;;;;;;22.27;11.93;;;20.40;85.80;;;;;;5149993;27;20142;-61
2022/06/24 05:58:25;;;;;;;;;;;19.20;98.50;;;;;;5146252;27;20065;-63
2022/06/24 06:00:53;;;;;;;17.92;12.00;;;18.90;99.90;;;;;;5141591;27;20406;-63
2022/06/24 06:03:18;;;;;;;31.67;13.95;;;18.70;99.80;;;;;;5145819;27;20167;-62
2022/06/24 06:05:44;;;;;;;18.23;13.68;;;18.70;99.90;;;;;;5153867;27;20444;-62
2022/06/24 06:08:10;;;;;;;21.85;14.30;;;18.60;99.90;;;;;;5120547;27;20041;-61
2022/06/24 06:10:37;;;;;;;22.63;15.18;;;18.60;99.90;;;;;;5143295;27;20035;-62
2022/06/24 06:13:03;;;;;;;24.80;15.70;;;18.80;99.90;;;;;;5147905;27;20045;-61
2022/06/24 06:15:29;;;;;;;24.67;17.65;;;18.70;99.90;;;;;;5123867;27;20030;-61
2022/06/24 06:17:56;;;;;;;22.30;16.77;;;18.50;99.90;;;;;;5150878;27;20039;-61
2022/06/24 06:20:21;;;;;;;22.08;17.02;;;19.10;99.90;;;;;;5143973;27;20038;-62
2022/06/24 06:22:47;;;;;;;25.48;16.08;;;18.80;99.90;;;;;;5151942;27;20030;-62
2022/06/24 06:25:15;;;;;;;28.90;17.90;;;18.80;99.90;;;;;;5147720;27;20425;-63
2022/06/24 06:27:41;;;;;;;21.50;17.13;;;18.90;99.90;;;;;;5150693;27;20088;-62
2022/06/24 06:30:07;;;;;;;29.65;17.92;;;19.00;99.90;;;;;;5137826;27;22338;-63
2022/06/24 06:32:32;;;;;;;21.45;15.15;;;18.90;99.90;;;;;;5120336;27;20039;-62
2022/06/24 06:34:58;;;;;;;21.52;15.85;;;19.00;99.90;;;;;;5141668;27;20030;-63
2022/06/24 06:37:23;;;;;;;23.40;16.38;;;18.90;99.90;;;;;;5125122;27;20068;-62
2022/06/24 06:39:49;;;;;;;24.90;18.05;;;19.00;99.90;;;;;;5152343;27;20455;-62
2022/06/24 06:42:14;;;;;;;27.77;18.80;;;19.00;99.90;;;;;;5127473;27;20424;-62
2022/06/24 06:44:40;;;;;;;24.38;19.02;;;19.00;99.90;;;;;;5142892;27;20425;-62
2022/06/24 06:47:06;;;;;;;22.55;17.30;;;19.10;99.90;;;;;;5131060;27;20038;-62
2022/06/24 06:49:32;;;;;;;22.55;17.45;;;18.90;99.90;;;;;;5147837;27;20030;-62
2022/06/24 06:52:01;;;;;;;25.92;17.77;;;18.90;99.90;;;;;;5138061;27;20441;-62
2022/06/24 06:54:27;;;;;;;25.45;17.40;;;18.80;99.90;;;;;;5148112;27;20066;-63
2022/06/24 06:56:53;;;;;;;25.02;16.45;;;18.70;99.90;;;;;;5145530;27;20043;-62
2022/06/24 06:59:18;;;;;;;25.23;16.88;;;18.80;99.90;;;;;;5147294;27;20047;-61
2022/06/24 07:01:44;;;;;;;26.00;16.75;;;18.80;99.90;;;;;;5146700;27;20058;-61
2022/06/24 07:04:09;;;;;;;24.58;17.92;;;18.70;99.90;;;;;;5143643;27;20077;-61
2022/06/24 07:06:35;;;;;;;31.15;18.08;;;18.80;99.90;;;;;;5141485;27;20034;-61
2022/06/24 07:09:01;;;;;;;20.88;16.48;;;18.70;99.90;;;;;;5147013;27;20035;-62
2022/06/24 07:11:27;;;;;;;23.17;15.23;;;18.70;99.90;;;;;;5144897;27;20084;-63
2022/06/24 07:13:54;;;;;;;18.88;15.05;;;18.90;99.90;;;;;;5152647;27;20035;-63
2022/06/24 07:16:20;;;;;;;22.48;15.20;;;18.70;99.90;;;;;;5151502;27;20046;-63
2022/06/24 07:18:46;;;;;;;23.38;15.23;;;18.70;99.90;;;;;;5130697;27;20078;-62
2022/06/24 07:21:12;;;;;;;17.77;13.43;;;18.90;99.90;;;;;;5152253;27;20034;-61
2022/06/24 07:23:39;;;;;;;20.83;13.77;;;18.90;99.90;;;;;;5171431;27;20089;-62
2022/06/24 07:26:05;;;;;;;19.70;13.77;;;18.80;99.90;;;;;;5158461;27;20401;-62
2022/06/24 07:28:31;;;;;;;15.27;11.93;;;18.70;99.90;;;;;;5158549;27;20068;-62
2022/06/24 07:30:56;;;;;;;16.90;12.65;;;18.90;99.90;;;;;;5145197;27;20034;-61
2022/06/24 07:33:23;;;;;;;18.60;13.05;;;18.90;99.90;;;;;;5111458;27;20086;-62
2022/06/24 07:35:49;;;;;;;23.52;14.90;;;18.60;99.90;;;;;;5152692;27;20201;-63
2022/06/24 07:38:15;;;;;;;17.00;13.02;;;18.70;99.90;;;;;;5152004;27;20054;-62
2022/06/24 07:40:41;;;;;;;18.92;13.43;;;18.60;99.90;;;;;;5156914;27;20035;-62
2022/06/24 07:43:07;;;;;;;19.10;13.30;;;18.80;99.90;;;;;;5122825;27;20039;-63
2022/06/24 07:45:33;;;;;;;15.65;11.73;;;18.80;99.90;;;;;;5170148;27;20844;-62
2022/06/24 07:47:59;;;;;;;19.35;13.88;;;18.60;99.90;;;;;;5151999;27;20041;-64
2022/06/24 07:50:25;;;;;;;14.88;12.13;;;18.70;99.90;;;;;;5131695;27;20375;-63
2022/06/24 07:52:52;;;;;;;15.90;12.57;;;18.70;99.90;;;;;;5167486;27;20045;-62
2022/06/24 07:58:01;;;;;;;15.55;11.95;;;18.80;99.90;;;;;;5149902;27;20035;-62
2022/06/24 08:00:27;;;;;;;21.98;14.75;;;19.10;99.90;;;;;;5150036;27;20031;-62
2022/06/24 08:02:53;;;;;;;19.73;13.38;;;18.90;99.90;;;;;;5154188;27;20030;-62
2022/06/24 08:05:19;;;;;;;17.23;14.10;;;18.90;99.90;;;;;;5154891;27;20053;-63
2022/06/24 08:07:44;;;;;;;18.70;13.20;;;19.30;99.90;;;;;;5167669;27;20070;-63
2022/06/24 08:10:10;;;;;;;16.27;11.88;;;19.30;99.90;;;;;;5156026;27;20043;-63
2022/06/24 08:12:36;;;;;;;15.13;11.23;;;19.00;99.90;;;;;;5165770;27;20392;-63
2022/06/24 08:15:02;;;;;;;12.18;10.73;;;19.20;99.90;;;;;;5117621;27;20031;-62
2022/06/24 08:17:27;;;;;;;17.48;10.93;;;19.20;99.90;;;;;;5150225;27;20086;-63
2022/06/24 08:19:53;;;;;;;11.88;10.57;;;19.30;99.90;;;;;;5158710;27;20042;-62
2022/06/24 08:22:20;;;;;;;12.82;10.55;;;19.40;99.90;;;;;;5148106;27;20039;-62
2022/06/24 08:24:46;;;;;;;16.25;11.65;;;19.20;99.90;;;;;;5152637;27;20049;-64
2022/06/24 08:27:12;;;;;;;10.90;9.30;;;19.20;99.90;;;;;;5151661;27;20038;-63
2022/06/24 08:29:38;;;;;;;11.70;9.63;;;19.20;99.90;;;;;;5134276;27;20022;-63
2022/06/24 08:32:07;;;;;;;11.23;9.38;;;19.50;99.90;;;;;;5159763;27;20153;-62
2022/06/24 08:34:33;;;;;;;9.88;8.85;;;19.50;99.90;;;;;;5155483;27;20030;-62
2022/06/24 08:36:58;;;;;;;11.48;8.93;;;19.70;99.90;;;;;;5131448;27;20054;-63
2022/06/24 08:39:24;;;;;;;12.10;9.20;;;19.40;99.90;;;;;;5155800;27;20030;-63
2022/06/24 08:41:55;;;;;;;9.93;8.93;;;19.40;99.90;;;;;;5156938;27;20031;-63
2022/06/24 08:44:21;;;;;;;10.75;8.80;;;19.50;99.90;;;;;;5146765;27;20199;-62
2022/06/24 08:46:47;;;;;;;11.60;9.20;;;19.10;99.90;;;;;;5159606;27;20042;-64
2022/06/24 08:49:12;;;;;;;12.07;9.45;;;19.10;99.90;;;;;;5160973;27;20046;-62
2022/06/24 08:51:41;;;;;;;10.00;8.90;;;19.20;99.90;;;;;;5127709;27;20033;-62
2022/06/24 08:54:09;;;;;;;11.75;9.23;;;19.40;99.90;;;;;;5135847;27;20047;-61
2022/06/24 08:56:35;;;;;;;13.43;9.50;;;19.10;99.90;;;;;;5150821;27;20043;-62
2022/06/24 08:59:01;;;;;;;11.40;9.07;;;19.40;99.90;;;;;;5155727;27;20053;-64
2022/06/24 09:01:27;;;;;;;10.73;9.05;;;19.30;99.90;;;;;;5158610;27;20030;-62
2022/06/24 09:03:55;;;;;;;12.98;9.60;;;19.50;99.90;;;;;;5158012;27;20044;-62
2022/06/24 09:06:21;;;;;;;10.43;8.95;;;19.90;99.90;;;;;;5142148;27;20077;-63
2022/06/24 09:08:51;;;;;;;11.88;10.07;;;20.00;99.90;;;;;;5166351;27;20470;-63
2022/06/24 09:11:18;;;;;;;14.32;10.55;;;19.40;99.90;;;;;;5158730;27;20423;-61
2022/06/24 09:13:48;;;;;;;14.18;10.30;;;19.40;99.90;;;;;;5138958;27;20035;-63
2022/06/24 09:16:18;;;;;;;14.77;11.18;;;19.80;99.90;;;;;;5156271;27;20506;-62
2022/06/24 09:18:55;;;;;;;13.15;11.02;;;19.30;99.90;;;;;;5156233;27;20040;-63
2022/06/24 09:21:41;;;;;;;18.38;12.32;;;19.80;99.90;;;;;;5131951;27;20925;-62
2022/06/24 09:24:08;;;;;;;16.15;11.88;;;20.00;99.90;;;;;;5138833;27;20081;-62
2022/06/24 09:26:39;;;;;;;15.75;12.88;;;19.40;99.90;;;;;;5165289;27;20037;-64
2022/06/24 09:29:07;;;;;;;13.57;11.05;;;19.60;99.90;;;;;;5165430;27;20045;-62
2022/06/24 09:31:34;;;;;;;14.00;11.27;;;19.10;99.90;;;;;;5131803;27;20622;-62
2022/06/24 09:34:25;;;;;;;13.32;10.50;;;20.30;99.90;;;;;;5146044;27;20042;-62
2022/06/24 09:36:51;;;;;;;13.70;10.38;;;19.80;99.90;;;;;;5151045;27;20038;-62
2022/06/24 09:39:17;;;;;;;11.27;9.32;;;19.50;99.90;;;;;;5160449;27;20546;-63
2022/06/24 09:41:43;;;;;;;13.65;10.20;;;20.10;99.90;;;;;;5150954;27;20050;-62
2022/06/24 09:44:09;;;;;;;11.27;10.07;;;20.10;99.90;;;;;;5150607;27;20051;-62
2022/06/24 09:46:38;;;;;;;14.02;10.40;;;18.70;99.90;;;;;;5151169;27;20044;-63
2022/06/24 09:49:24;;;;;;;13.30;10.18;;;18.80;99.90;;;;;;5153524;27;20054;-62
2022/06/24 09:51:50;;;;;;;14.95;10.60;;;19.80;99.90;;;;;;5150248;27;20137;-62
2022/06/24 09:54:16;;;;;;;12.07;10.48;;;19.00;99.90;;;;;;5144681;27;20477;-63
2022/06/24 09:56:44;;;;;;;13.48;9.88;;;19.10;99.90;;;;;;5149429;27;20042;-62
2022/06/24 10:01:57;;;;;;;50.30;15.75;;;18.50;99.90;;;;;;5153624;27;20035;-60
2022/06/24 10:04:24;;;;;;;18.73;11.65;;;18.80;99.90;;;;;;5146604;27;20030;-60
2022/06/24 10:06:50;;;;;;;35.00;13.90;;;18.40;99.90;;;;;;5125352;27;20091;-62
2022/06/24 10:09:26;;;;;;;65.13;13.98;;;18.40;99.90;;;;;;5144243;27;20038;-60
2022/06/24 10:11:54;;;;;;;52.35;15.68;;;18.30;99.90;;;;;;5151788;27;20386;-60
2022/06/24 10:14:20;;;;;;;79.65;16.70;;;18.10;99.90;;;;;;5151038;27;20654;-60
2022/06/24 10:16:49;;;;;;;49.47;14.18;;;18.60;99.90;;;;;;5150943;27;20039;-60
2022/06/24 10:19:16;;;;;;;34.45;10.45;;;18.50;99.90;;;;;;5149063;27;20046;-60
2022/06/24 10:21:42;;;;;;;49.03;10.18;;;18.70;99.90;;;;;;5144150;27;20031;-61
2022/06/24 10:24:15;;;;;;;17.20;6.63;;;18.30;99.90;;;;;;5152516;27;20630;-60
2022/06/24 10:26:44;;;;;;;11.13;6.03;;;18.00;99.90;;;;;;5150870;27;20031;-61
2022/06/24 10:29:18;;;;;;;15.15;6.57;;;18.30;99.90;;;;;;5147688;27;20122;-60
2022/06/24 10:31:52;;;;;;;12.77;7.00;;;18.40;99.90;;;;;;5148007;27;20030;-60
2022/06/24 10:34:29;;;;;;;12.55;6.80;;;18.20;99.90;;;;;;5138698;27;20141;-60
2022/06/24 10:37:04;;;;;;;14.57;6.90;;;18.50;99.90;;;;;;5132876;27;20133;-61
2022/06/24 10:39:32;;;;;;;8.63;6.80;;;18.30;99.90;;;;;;5122408;28;20145;-60
2022/06/24 10:42:06;;;;;;;12.10;7.10;;;17.80;99.90;;;;;;5122705;27;20655;-59
2022/06/24 10:44:57;;;;;;;19.88;8.30;;;18.40;99.90;;;;;;5150185;27;20486;-60
2022/06/24 10:47:25;;;;;;;;;;;18.30;99.90;;;;;;5146803;27;20034;-60
2022/06/24 10:49:54;;;;;;;20.10;8.52;;;18.10;99.90;;;;;;5147386;27;19915;-60
2022/06/24 10:52:34;;;;;;;19.50;8.68;;;18.00;99.90;;;;;;5152007;27;20045;-60
2022/06/24 10:55:15;;;;;;;20.00;8.98;;;17.90;99.90;;;;;;5152092;27;20629;-60
2022/06/24 10:57:41;;;;;;;27.80;10.10;;;18.20;99.90;;;;;;5154799;27;20095;-61
2022/06/24 11:00:14;;;;;;;17.40;7.93;;;17.70;99.90;;;;;;5150952;27;20547;-60
2022/06/24 11:02:40;;;;;;;12.77;7.28;;;18.00;99.90;;;;;;5155298;27;20039;-60
2022/06/24 11:05:11;;;;;;;10.38;6.85;;;18.20;99.90;;;;;;5128925;27;20053;-60
2022/06/24 11:07:44;;;;;;;10.07;6.63;;;18.20;99.90;;;;;;5169301;27;20053;-60
2022/06/24 11:10:29;;;;;;;8.68;5.70;;;17.90;99.90;;;;;;5122734;27;20070;-60
2022/06/24 11:12:59;;;;;;;6.70;5.30;;;17.80;99.90;;;;;;5124562;27;20042;-60
2022/06/24 11:15:38;;;;;;;6.70;4.50;;;17.50;99.90;;;;;;5141044;27;20496;-60
2022/06/24 11:18:22;;;;;;;8.43;4.60;;;17.70;99.90;;;;;;5134120;27;20078;-60
2022/06/24 11:20:59;;;;;;;4.85;4.15;;;17.90;99.90;;;;;;5154656;27;20034;-60
2022/06/24 11:23:27;;;;;;;7.40;5.13;;;17.50;99.90;;;;;;5156608;27;20073;-60
2022/06/24 11:26:02;;;;;;;7.88;4.30;;;17.70;99.90;;;;;;5152396;27;20047;-59
2022/06/24 11:28:35;;;;;;;7.00;4.60;;;17.50;99.90;;;;;;5158428;27;20075;-59
2022/06/24 11:31:19;;;;;;;6.88;4.78;;;17.50;99.90;;;;;;5152069;27;20045;-59
2022/06/24 11:33:46;;;;;;;5.25;4.72;;;17.40;99.90;;;;;;5147278;27;20058;-60
2022/06/24 11:36:14;;;;;;;7.82;4.50;;;17.20;99.90;;;;;;5154448;27;20122;-60
2022/06/24 11:38:56;;;;;;;6.57;4.70;;;17.70;99.90;;;;;;5154581;27;20537;-61
2022/06/24 11:41:30;;;;;;;6.80;5.00;;;17.70;99.90;;;;;;5148660;27;20390;-59
2022/06/24 11:43:56;;;;;;;7.07;5.05;;;17.30;99.90;;;;;;5153677;27;20091;-62
2022/06/24 11:46:22;;;;;;;7.43;5.88;;;17.60;99.90;;;;;;5150478;27;20035;-61
2022/06/24 11:48:48;;;;;;;8.10;5.22;;;17.40;99.90;;;;;;5135128;27;20087;-61
2022/06/24 11:51:21;;;;;;;5.57;5.07;;;18.00;99.90;;;;;;5153039;27;20031;-62
2022/06/24 11:54:01;;;;;;;8.45;5.50;;;18.00;99.90;;;;;;5135532;27;20039;-60
2022/06/24 11:56:29;;;;;;;5.85;4.90;;;17.80;99.90;;;;;;5148060;27;20066;-61
2022/06/24 11:58:56;;;;;;;7.55;5.43;;;18.20;99.90;;;;;;5149034;27;20039;-60
2022/06/24 12:01:23;;;;;;;7.63;5.75;;;18.40;99.90;;;;;;5148255;27;20038;-60
2022/06/24 12:03:50;;;;;;;7.20;4.68;;;18.50;99.90;;;;;;5146384;27;20042;-61
2022/06/24 12:06:18;;;;;;;7.50;5.40;;;18.30;99.90;;;;;;5143242;27;20031;-60
2022/06/24 12:08:45;;;;;;;6.07;5.07;;;18.80;99.90;;;;;;5103047;27;22406;-62
2022/06/24 12:11:15;;;;;;;7.25;5.05;;;18.60;99.90;;;;;;5096943;27;20046;-61
2022/06/24 12:13:41;;;;;;;5.82;4.68;;;18.40;99.90;;;;;;5140248;27;20042;-59
2022/06/24 12:16:07;;;;;;;7.78;4.70;;;18.70;99.90;;;;;;5148565;27;20456;-60
2022/06/24 12:18:33;;;;;;;6.95;5.22;;;18.80;99.90;;;;;;5127924;27;20535;-60
2022/06/24 12:21:03;;;;;;;5.10;4.47;;;18.40;99.90;;;;;;5147344;27;20366;-60
2022/06/24 12:23:39;;;;;;;5.45;4.80;;;18.40;99.90;;;;;;5152805;27;20046;-59
2022/06/24 12:26:13;;;;;;;6.20;4.45;;;18.80;99.90;;;;;;5134623;27;20057;-60
2022/06/24 12:28:40;;;;;;;6.70;5.35;;;19.00;99.90;;;;;;5148014;27;20387;-59
2022/06/24 12:31:11;;;;;;;6.65;5.10;;;18.90;99.90;;;;;;5146347;27;20037;-60
2022/06/24 12:33:51;;;;;;;6.13;5.20;;;19.10;99.90;;;;;;5120946;27;20039;-59
2022/06/24 12:36:19;;;;;;;7.05;5.82;;;19.50;99.90;;;;;;5162705;27;20038;-59
2022/06/24 12:38:45;;;;;;;6.85;5.32;;;19.60;99.90;;;;;;5147367;27;20034;-61
2022/06/24 12:41:13;;;;;;;8.88;5.78;;;19.70;99.90;;;;;;5128859;27;20042;-61
2022/06/24 12:43:59;;;;;;;7.28;5.80;;;19.50;99.90;;;;;;5148883;27;20038;-61
2022/06/24 12:46:26;;;;;;;9.98;5.93;;;19.70;99.90;;;;;;5158577;27;20610;-62
2022/06/24 12:52:03;;;;;;;9.82;6.68;;;20.60;99.90;;;;;;5149557;27;20667;-61
2022/06/24 12:54:28;;;;;;;10.98;7.85;;;20.60;99.90;;;;;;5149864;27;20394;-61
2022/06/24 12:56:54;;;;;;;11.90;8.20;;;20.50;99.90;;;;;;5150685;27;20043;-63
2022/06/24 12:59:19;;;;;;;9.55;7.43;;;20.40;99.90;;;;;;5147475;27;20046;-60
2022/06/24 13:01:46;;;;;;;12.77;10.13;;;20.20;99.90;;;;;;5153002;27;20045;-60